sensor_id;sensor_type;location;lat;lon;timestamp;pressure;altitude;pressure_sealevel;temperature;humidity
8641;BME280;4358;42.100;25.222;2022-11-11T00:00:35;101201.25;;;7.10;100.00
8641;BME280;4358;42.100;25.222;2022-11-11T00:03:03;101204.69;;;7.12;100.00
8641;BME280;4358;42.100;25.222;2022-11-11T00:05:32;101206.63;;;7.07;100.00
8641;BME280;4358;42.100;25.222;2022-11-11T00:08:01;101212.72;;;7.09;100.00
8641;BME280;4358;42.100;25.222;2022-11-11T00:10:28;101201.75;;;6.95;100.00
8641;BME280;4358;42.100;25.222;2022-11-11T00:12:58;101218.38;;;6.97;100.00
8641;BME280;4358;42.100;25.222;2022-11-11T00:15:26;101212.31;;;6.95;100.00
8641;BME280;4358;42.100;25.222;2022-11-11T00:17:53;101203.66;;;6.90;100.00
8641;BME280;4358;42.100;25.222;2022-11-11T00:20:38;101202.69;;;6.92;100.00
8641;BME280;4358;42.100;25.222;2022-11-11T00:23:25;101192.91;;;6.96;100.00
8641;BME280;4358;42.100;25.222;2022-11-11T00:26:11;101191.19;;;6.95;100.00
8641;BME280;4358;42.100;25.222;2022-11-11T00:28:39;101194.44;;;7.03;100.00
8641;BME280;4358;42.100;25.222;2022-11-11T00:31:08;101190.88;;;7.04;100.00
8641;BME280;4358;42.100;25.222;2022-11-11T00:33:35;101189.94;;;7.06;100.00
8641;BME280;4358;42.100;25.222;2022-11-11T00:36:02;101194.41;;;7.04;100.00
8641;BME280;4358;42.100;25.222;2022-11-11T00:38:30;101158.09;;;6.85;100.00
8641;BME280;4358;42.100;25.222;2022-11-11T00:41:13;101196.84;;;7.10;100.00
8641;BME280;4358;42.100;25.222;2022-11-11T00:43:41;101187.34;;;7.05;100.00
8641;BME280;4358;42.100;25.222;2022-11-11T00:46:08;101198.69;;;7.07;100.00
8641;BME280;4358;42.100;25.222;2022-11-11T00:48:53;101199.00;;;6.98;100.00
8641;BME280;4358;42.100;25.222;2022-11-11T00:51:37;101200.13;;;6.91;100.00
8641;BME280;4358;42.100;25.222;2022-11-11T00:54:05;101190.41;;;6.91;100.00
8641;BME280;4358;42.100;25.222;2022-11-11T00:56:32;101187.72;;;6.93;100.00
8641;BME280;4358;42.100;25.222;2022-11-11T00:59:00;101199.91;;;6.97;100.00
8641;BME280;4358;42.100;25.222;2022-11-11T01:01:28;101198.09;;;6.99;100.00
8641;BME280;4358;42.100;25.222;2022-11-11T01:03:55;101194.84;;;6.91;100.00
8641;BME280;4358;42.100;25.222;2022-11-11T01:06:21;101195.69;;;6.91;100.00
8641;BME280;4358;42.100;25.222;2022-11-11T01:08:48;101187.91;;;6.87;100.00
8641;BME280;4358;42.100;25.222;2022-11-11T01:11:19;101198.38;;;6.90;100.00
8641;BME280;4358;42.100;25.222;2022-11-11T01:13:47;101188.75;;;6.89;100.00
8641;BME280;4358;42.100;25.222;2022-11-11T01:16:16;101186.38;;;6.79;100.00
8641;BME280;4358;42.100;25.222;2022-11-11T01:18:43;101191.75;;;6.76;100.00
8641;BME280;4358;42.100;25.222;2022-11-11T01:21:12;101184.69;;;6.77;100.00
8641;BME280;4358;42.100;25.222;2022-11-11T01:23:40;101176.88;;;6.74;100.00
8641;BME280;4358;42.100;25.222;2022-11-11T01:26:14;101178.69;;;6.72;100.00
8641;BME280;4358;42.100;25.222;2022-11-11T01:28:43;101175.19;;;6.71;100.00
8641;BME280;4358;42.100;25.222;2022-11-11T01:31:12;101174.28;;;6.72;100.00
8641;BME280;4358;42.100;25.222;2022-11-11T01:33:40;101167.19;;;6.74;100.00
8641;BME280;4358;42.100;25.222;2022-11-11T01:36:09;101167.91;;;6.79;100.00
8641;BME280;4358;42.100;25.222;2022-11-11T01:38:37;101170.44;;;6.82;100.00
8641;BME280;4358;42.100;25.222;2022-11-11T01:41:05;101165.88;;;6.88;100.00
8641;BME280;4358;42.100;25.222;2022-11-11T01:43:48;101166.59;;;6.93;100.00
8641;BME280;4358;42.100;25.222;2022-11-11T01:46:25;101164.72;;;6.96;100.00
8641;BME280;4358;42.100;25.222;2022-11-11T01:48:55;101162.88;;;7.00;100.00
8641;BME280;4358;42.100;25.222;2022-11-11T01:51:45;101168.34;;;6.94;100.00
8641;BME280;4358;42.100;25.222;2022-11-11T01:54:16;101170.16;;;6.92;100.00
8641;BME280;4358;42.100;25.222;2022-11-11T01:56:46;101164.13;;;6.88;100.00
8641;BME280;4358;42.100;25.222;2022-11-11T01:59:16;101170.31;;;6.87;100.00
8641;BME280;4358;42.100;25.222;2022-11-11T02:01:43;101172.88;;;6.90;100.00
8641;BME280;4358;42.100;25.222;2022-11-11T02:04:11;101168.63;;;6.85;100.00
8641;BME280;4358;42.100;25.222;2022-11-11T02:06:57;101176.63;;;6.81;100.00
8641;BME280;4358;42.100;25.222;2022-11-11T02:09:26;101179.75;;;6.66;100.00
8641;BME280;4358;42.100;25.222;2022-11-11T02:11:54;101172.13;;;6.57;100.00
8641;BME280;4358;42.100;25.222;2022-11-11T02:14:42;101172.44;;;6.47;100.00
8641;BME280;4358;42.100;25.222;2022-11-11T02:17:13;101173.59;;;6.38;100.00
8641;BME280;4358;42.100;25.222;2022-11-11T02:19:48;101172.06;;;6.29;100.00
8641;BME280;4358;42.100;25.222;2022-11-11T02:22:25;101179.28;;;6.23;100.00
8641;BME280;4358;42.100;25.222;2022-11-11T02:24:56;101184.06;;;6.10;100.00
8641;BME280;4358;42.100;25.222;2022-11-11T02:27:25;101175.59;;;5.99;100.00
8641;BME280;4358;42.100;25.222;2022-11-11T02:29:55;101168.72;;;5.93;100.00
8641;BME280;4358;42.100;25.222;2022-11-11T02:32:22;101171.34;;;5.93;100.00
8641;BME280;4358;42.100;25.222;2022-11-11T02:34:49;101165.34;;;5.88;100.00
8641;BME280;4358;42.100;25.222;2022-11-11T02:37:19;101168.75;;;5.92;100.00
8641;BME280;4358;42.100;25.222;2022-11-11T02:39:48;101138.41;;;5.77;100.00
8641;BME280;4358;42.100;25.222;2022-11-11T02:42:19;101176.63;;;5.93;100.00
8641;BME280;4358;42.100;25.222;2022-11-11T02:44:46;101175.50;;;6.02;100.00
8641;BME280;4358;42.100;25.222;2022-11-11T02:47:14;101176.72;;;5.90;100.00
8641;BME280;4358;42.100;25.222;2022-11-11T02:49:40;101172.31;;;5.91;100.00
8641;BME280;4358;42.100;25.222;2022-11-11T02:52:07;101177.78;;;5.82;100.00
8641;BME280;4358;42.100;25.222;2022-11-11T02:54:34;101175.97;;;5.84;100.00
8641;BME280;4358;42.100;25.222;2022-11-11T02:57:01;101173.38;;;5.82;100.00
8641;BME280;4358;42.100;25.222;2022-11-11T02:59:36;101175.13;;;5.83;100.00
8641;BME280;4358;42.100;25.222;2022-11-11T03:02:04;101174.00;;;5.93;100.00
8641;BME280;4358;42.100;25.222;2022-11-11T03:04:31;101180.38;;;5.83;100.00
8641;BME280;4358;42.100;25.222;2022-11-11T03:06:57;101189.53;;;5.70;100.00
8641;BME280;4358;42.100;25.222;2022-11-11T03:09:24;101187.72;;;5.72;100.00
8641;BME280;4358;42.100;25.222;2022-11-11T03:11:51;101191.81;;;5.82;100.00
8641;BME280;4358;42.100;25.222;2022-11-11T03:14:18;101175.28;;;5.77;100.00
8641;BME280;4358;42.100;25.222;2022-11-11T03:16:46;101191.81;;;5.82;100.00
8641;BME280;4358;42.100;25.222;2022-11-11T03:19:31;101181.53;;;5.73;100.00
8641;BME280;4358;42.100;25.222;2022-11-11T03:21:58;101181.56;;;5.72;100.00
8641;BME280;4358;42.100;25.222;2022-11-11T03:24:24;101178.16;;;5.68;100.00
8641;BME280;4358;42.100;25.222;2022-11-11T03:27:11;101169.22;;;5.75;100.00
8641;BME280;4358;42.100;25.222;2022-11-11T03:29:38;101169.16;;;5.77;100.00
8641;BME280;4358;42.100;25.222;2022-11-11T03:32:07;101174.38;;;5.78;100.00
8641;BME280;4358;42.100;25.222;2022-11-11T03:34:34;101181.22;;;5.85;100.00
8641;BME280;4358;42.100;25.222;2022-11-11T03:37:02;101182.16;;;5.83;100.00
8641;BME280;4358;42.100;25.222;2022-11-11T03:39:46;101184.81;;;5.81;100.00
8641;BME280;4358;42.100;25.222;2022-11-11T03:42:13;101184.06;;;5.78;100.00
8641;BME280;4358;42.100;25.222;2022-11-11T03:44:40;101179.63;;;5.46;100.00
8641;BME280;4358;42.100;25.222;2022-11-11T03:47:08;101174.97;;;5.55;100.00
8641;BME280;4358;42.100;25.222;2022-11-11T03:49:35;101185.00;;;5.75;100.00
8641;BME280;4358;42.100;25.222;2022-11-11T03:52:02;101162.38;;;5.68;100.00
8641;BME280;4358;42.100;25.222;2022-11-11T03:54:29;101187.41;;;5.84;100.00
8641;BME280;4358;42.100;25.222;2022-11-11T03:56:56;101186.66;;;5.79;100.00
8641;BME280;4358;42.100;25.222;2022-11-11T03:59:43;101184.09;;;5.76;100.00
8641;BME280;4358;42.100;25.222;2022-11-11T04:02:13;101185.75;;;5.80;100.00
8641;BME280;4358;42.100;25.222;2022-11-11T04:04:57;101192.44;;;5.93;100.00
8641;BME280;4358;42.100;25.222;2022-11-11T04:07:41;101186.91;;;6.03;100.00
8641;BME280;4358;42.100;25.222;2022-11-11T04:10:27;101190.28;;;6.08;100.00
8641;BME280;4358;42.100;25.222;2022-11-11T04:12:55;101194.88;;;6.01;100.00
8641;BME280;4358;42.100;25.222;2022-11-11T04:15:40;101187.00;;;6.00;100.00
8641;BME280;4358;42.100;25.222;2022-11-11T04:18:26;101187.91;;;5.99;100.00
8641;BME280;4358;42.100;25.222;2022-11-11T04:21:07;101186.91;;;6.03;100.00
8641;BME280;4358;42.100;25.222;2022-11-11T04:23:51;101187.69;;;6.06;100.00
8641;BME280;4358;42.100;25.222;2022-11-11T04:26:18;101190.25;;;6.09;100.00
8641;BME280;4358;42.100;25.222;2022-11-11T04:28:44;101178.19;;;6.01;100.00
8641;BME280;4358;42.100;25.222;2022-11-11T04:31:28;101190.47;;;6.02;100.00
8641;BME280;4358;42.100;25.222;2022-11-11T04:33:56;101192.53;;;5.90;100.00
8641;BME280;4358;42.100;25.222;2022-11-11T04:36:22;101190.44;;;5.69;100.00
8641;BME280;4358;42.100;25.222;2022-11-11T04:38:49;101198.41;;;5.66;100.00
8641;BME280;4358;42.100;25.222;2022-11-11T04:41:30;101189.84;;;5.58;100.00
8641;BME280;4358;42.100;25.222;2022-11-11T04:43:57;101194.72;;;5.39;100.00
8641;BME280;4358;42.100;25.222;2022-11-11T04:46:41;101193.69;;;5.45;100.00
8641;BME280;4358;42.100;25.222;2022-11-11T04:49:09;101199.69;;;5.50;100.00
8641;BME280;4358;42.100;25.222;2022-11-11T04:51:36;101200.63;;;5.49;100.00
8641;BME280;4358;42.100;25.222;2022-11-11T04:54:16;101202.66;;;5.38;100.00
8641;BME280;4358;42.100;25.222;2022-11-11T04:56:43;101200.81;;;5.41;100.00
8641;BME280;4358;42.100;25.222;2022-11-11T04:59:15;101202.44;;;5.47;100.00
8641;BME280;4358;42.100;25.222;2022-11-11T05:01:42;101205.81;;;5.52;100.00
8641;BME280;4358;42.100;25.222;2022-11-11T05:04:28;101200.72;;;5.44;100.00
8641;BME280;4358;42.100;25.222;2022-11-11T05:06:55;101202.66;;;5.38;100.00
8641;BME280;4358;42.100;25.222;2022-11-11T05:09:39;101208.84;;;5.37;100.00
8641;BME280;4358;42.100;25.222;2022-11-11T05:12:06;101211.38;;;5.40;100.00
8641;BME280;4358;42.100;25.222;2022-11-11T05:14:33;101213.34;;;5.32;100.00
8641;BME280;4358;42.100;25.222;2022-11-11T05:17:17;101204.56;;;5.33;100.00
8641;BME280;4358;42.100;25.222;2022-11-11T05:20:03;101214.69;;;5.48;100.00
8641;BME280;4358;42.100;25.222;2022-11-11T05:22:48;101211.91;;;5.54;100.00
8641;BME280;4358;42.100;25.222;2022-11-11T05:25:15;101222.19;;;5.65;100.00
8641;BME280;4358;42.100;25.222;2022-11-11T05:27:50;101229.16;;;5.66;100.00
8641;BME280;4358;42.100;25.222;2022-11-11T05:30:17;101224.56;;;5.74;100.00
8641;BME280;4358;42.100;25.222;2022-11-11T05:32:44;101232.38;;;5.77;100.00
8641;BME280;4358;42.100;25.222;2022-11-11T05:35:14;101227.09;;;5.77;100.00
8641;BME280;4358;42.100;25.222;2022-11-11T05:37:41;101236.50;;;5.88;100.00
8641;BME280;4358;42.100;25.222;2022-11-11T05:40:09;101239.81;;;5.97;100.00
8641;BME280;4358;42.100;25.222;2022-11-11T05:42:40;101242.47;;;5.95;100.00
8641;BME280;4358;42.100;25.222;2022-11-11T05:45:08;101253.38;;;6.14;100.00
8641;BME280;4358;42.100;25.222;2022-11-11T05:47:35;101249.81;;;6.16;100.00
8641;BME280;4358;42.100;25.222;2022-11-11T05:50:02;101253.91;;;6.26;100.00
8641;BME280;4358;42.100;25.222;2022-11-11T05:52:31;101259.88;;;6.33;100.00
8641;BME280;4358;42.100;25.222;2022-11-11T05:54:57;101263.50;;;6.29;100.00
8641;BME280;4358;42.100;25.222;2022-11-11T05:57:24;101263.50;;;6.29;100.00
8641;BME280;4358;42.100;25.222;2022-11-11T05:59:51;101265.06;;;6.36;100.00
8641;BME280;4358;42.100;25.222;2022-11-11T06:02:18;101270.94;;;6.46;100.00
8641;BME280;4358;42.100;25.222;2022-11-11T06:04:45;101265.50;;;6.52;100.00
8641;BME280;4358;42.100;25.222;2022-11-11T06:07:12;101270.44;;;6.62;100.00
8641;BME280;4358;42.100;25.222;2022-11-11T06:09:40;101268.34;;;6.75;100.00
8641;BME280;4358;42.100;25.222;2022-11-11T06:12:07;101262.63;;;6.89;100.00
8641;BME280;4358;42.100;25.222;2022-11-11T06:14:34;101272.72;;;7.04;100.00
8641;BME280;4358;42.100;25.222;2022-11-11T06:17:01;101276.91;;;7.11;100.00
8641;BME280;4358;42.100;25.222;2022-11-11T06:19:28;101274.69;;;7.25;100.00
8641;BME280;4358;42.100;25.222;2022-11-11T06:21:54;101282.16;;;7.39;100.00
8641;BME280;4358;42.100;25.222;2022-11-11T06:24:25;101288.09;;;7.47;100.00
8641;BME280;4358;42.100;25.222;2022-11-11T06:26:54;101290.41;;;7.56;100.00
8641;BME280;4358;42.100;25.222;2022-11-11T06:29:21;101290.31;;;7.59;100.00
8641;BME280;4358;42.100;25.222;2022-11-11T06:31:47;101294.63;;;7.61;100.00
8641;BME280;4358;42.100;25.222;2022-11-11T06:34:14;101296.38;;;7.62;100.00
8641;BME280;4358;42.100;25.222;2022-11-11T06:36:41;101296.22;;;7.67;100.00
8641;BME280;4358;42.100;25.222;2022-11-11T06:39:08;101296.06;;;7.72;100.00
8641;BME280;4358;42.100;25.222;2022-11-11T06:41:35;101297.59;;;7.79;100.00
8641;BME280;4358;42.100;25.222;2022-11-11T06:44:03;101291.88;;;7.91;100.00
8641;BME280;4358;42.100;25.222;2022-11-11T06:46:30;101293.41;;;7.98;100.00
8641;BME280;4358;42.100;25.222;2022-11-11T06:48:57;101301.50;;;7.93;100.00
8641;BME280;4358;42.100;25.222;2022-11-11T06:51:24;101296.88;;;8.00;100.00
8641;BME280;4358;42.100;25.222;2022-11-11T06:53:50;101293.94;;;8.07;100.00
8641;BME280;4358;42.100;25.222;2022-11-11T06:56:17;101295.47;;;8.15;100.00
8641;BME280;4358;42.100;25.222;2022-11-11T06:58:44;101297.75;;;8.25;100.00
8641;BME280;4358;42.100;25.222;2022-11-11T07:01:12;101303.72;;;8.32;100.00
8641;BME280;4358;42.100;25.222;2022-11-11T07:03:40;101294.53;;;8.42;100.00
8641;BME280;4358;42.100;25.222;2022-11-11T07:06:06;101295.75;;;8.57;100.00
8641;BME280;4358;42.100;25.222;2022-11-11T07:08:33;101304.09;;;8.69;100.00
8641;BME280;4358;42.100;25.222;2022-11-11T07:11:00;101306.34;;;8.80;100.00
8641;BME280;4358;42.100;25.222;2022-11-11T07:13:27;101303.25;;;8.92;100.00
8641;BME280;4358;42.100;25.222;2022-11-11T07:15:54;101308.00;;;9.06;100.00
8641;BME280;4358;42.100;25.222;2022-11-11T07:18:22;101303.84;;;9.22;100.00
8641;BME280;4358;42.100;25.222;2022-11-11T07:20:49;101305.81;;;9.39;100.00
8641;BME280;4358;42.100;25.222;2022-11-11T07:23:16;101306.13;;;9.53;100.00
8641;BME280;4358;42.100;25.222;2022-11-11T07:25:43;101306.31;;;9.70;100.00
8641;BME280;4358;42.100;25.222;2022-11-11T07:28:10;101309.25;;;9.84;100.00
8641;BME280;4358;42.100;25.222;2022-11-11T07:30:37;101311.94;;;10.04;100.00
8641;BME280;4358;42.100;25.222;2022-11-11T07:33:05;101306.88;;;10.20;100.00
8641;BME280;4358;42.100;25.222;2022-11-11T07:35:33;101309.59;;;10.39;100.00
8641;BME280;4358;42.100;25.222;2022-11-11T07:38:00;101312.56;;;10.51;100.00
8641;BME280;4358;42.100;25.222;2022-11-11T07:40:27;101307.44;;;10.67;100.00
8641;BME280;4358;42.100;25.222;2022-11-11T07:42:54;101314.06;;;10.77;100.00
8641;BME280;4358;42.100;25.222;2022-11-11T07:45:21;101314.94;;;10.96;100.00
8641;BME280;4358;42.100;25.222;2022-11-11T07:47:47;101308.78;;;11.15;100.00
8641;BME280;4358;42.100;25.222;2022-11-11T07:50:14;101307.59;;;11.39;100.00
8641;BME280;4358;42.100;25.222;2022-11-11T07:52:48;101306.56;;;11.60;100.00
8641;BME280;4358;42.100;25.222;2022-11-11T07:55:15;101324.56;;;11.91;100.00
8641;BME280;4358;42.100;25.222;2022-11-11T07:57:42;101323.00;;;12.04;100.00
8641;BME280;4358;42.100;25.222;2022-11-11T08:00:10;101323.78;;;12.23;100.00
8641;BME280;4358;42.100;25.222;2022-11-11T08:02:37;101320.59;;;12.34;100.00
8641;BME280;4358;42.100;25.222;2022-11-11T08:05:04;101319.53;;;12.54;100.00
8641;BME280;4358;42.100;25.222;2022-11-11T08:07:33;101330.41;;;12.66;100.00
8641;BME280;4358;42.100;25.222;2022-11-11T08:10:01;101326.75;;;12.85;100.00
8641;BME280;4358;42.100;25.222;2022-11-11T08:12:27;101339.84;;;13.05;100.00
8641;BME280;4358;42.100;25.222;2022-11-11T08:15:12;101332.44;;;13.27;100.00
8641;BME280;4358;42.100;25.222;2022-11-11T08:17:39;101341.47;;;13.40;100.00
8641;BME280;4358;42.100;25.222;2022-11-11T08:20:07;101338.56;;;13.61;100.00
8641;BME280;4358;42.100;25.222;2022-11-11T08:22:35;101336.47;;;13.66;100.00
8641;BME280;4358;42.100;25.222;2022-11-11T08:25:05;101330.28;;;13.81;100.00
8641;BME280;4358;42.100;25.222;2022-11-11T08:27:32;101302.56;;;13.68;100.00
8641;BME280;4358;42.100;25.222;2022-11-11T08:29:59;101342.28;;;13.88;100.00
8641;BME280;4358;42.100;25.222;2022-11-11T08:32:26;101338.44;;;13.78;100.00
8641;BME280;4358;42.100;25.222;2022-11-11T08:34:53;101331.81;;;13.69;100.00
8641;BME280;4358;42.100;25.222;2022-11-11T08:37:20;101335.25;;;13.55;100.00
8641;BME280;4358;42.100;25.222;2022-11-11T08:39:46;101330.03;;;13.38;100.00
8641;BME280;4358;42.100;25.222;2022-11-11T08:42:15;101327.19;;;13.41;100.00
8641;BME280;4358;42.100;25.222;2022-11-11T08:44:42;101328.91;;;13.42;100.00
8641;BME280;4358;42.100;25.222;2022-11-11T08:47:09;101336.13;;;13.40;100.00
8641;BME280;4358;42.100;25.222;2022-11-11T08:49:36;101318.31;;;13.25;100.00
8641;BME280;4358;42.100;25.222;2022-11-11T08:52:03;101329.78;;;13.27;100.00
8641;BME280;4358;42.100;25.222;2022-11-11T08:54:30;101328.56;;;13.33;100.00
8641;BME280;4358;42.100;25.222;2022-11-11T08:56:56;101333.72;;;13.36;100.00
8641;BME280;4358;42.100;25.222;2022-11-11T08:59:24;101333.91;;;13.33;100.00
8641;BME280;4358;42.100;25.222;2022-11-11T09:01:51;101328.03;;;13.26;100.00
8641;BME280;4358;42.100;25.222;2022-11-11T09:04:18;101335.19;;;13.41;100.00
8641;BME280;4358;42.100;25.222;2022-11-11T09:06:45;101334.84;;;13.47;100.00
8641;BME280;4358;42.100;25.222;2022-11-11T09:09:12;101328.91;;;13.42;100.00
8641;BME280;4358;42.100;25.222;2022-11-11T09:11:39;101334.75;;;13.49;100.00
8641;BME280;4358;42.100;25.222;2022-11-11T09:14:06;101333.22;;;13.61;100.00
8641;BME280;4358;42.100;25.222;2022-11-11T09:16:34;101293.97;;;13.47;100.00
8641;BME280;4358;42.100;25.222;2022-11-11T09:19:01;101337.13;;;13.85;100.00
8641;BME280;4358;42.100;25.222;2022-11-11T09:21:28;101332.31;;;13.91;100.00
8641;BME280;4358;42.100;25.222;2022-11-11T09:23:55;101328.78;;;13.91;100.00
8641;BME280;4358;42.100;25.222;2022-11-11T09:26:24;101328.44;;;13.97;100.00
8641;BME280;4358;42.100;25.222;2022-11-11T09:28:51;101322.31;;;13.95;100.00
8641;BME280;4358;42.100;25.222;2022-11-11T09:31:18;101320.91;;;14.04;100.00
8641;BME280;4358;42.100;25.222;2022-11-11T09:33:46;101323.41;;;14.07;100.00
8641;BME280;4358;42.100;25.222;2022-11-11T09:36:13;101326.31;;;14.18;100.00
8641;BME280;4358;42.100;25.222;2022-11-11T09:38:39;101320.31;;;14.28;100.00
8641;BME280;4358;42.100;25.222;2022-11-11T09:41:14;101316.69;;;14.29;100.00
8641;BME280;4358;42.100;25.222;2022-11-11T09:43:47;101311.91;;;14.34;100.00
8641;BME280;4358;42.100;25.222;2022-11-11T09:46:25;101317.72;;;14.43;100.00
8641;BME280;4358;42.100;25.222;2022-11-11T09:49:15;101313.88;;;14.47;100.00
8641;BME280;4358;42.100;25.222;2022-11-11T09:51:54;101318.66;;;14.56;100.00
8641;BME280;4358;42.100;25.222;2022-11-11T09:54:30;101314.88;;;14.60;100.00
8641;BME280;4358;42.100;25.222;2022-11-11T09:57:02;101309.91;;;14.54;100.00
8641;BME280;4358;42.100;25.222;2022-11-11T09:59:37;101310.56;;;14.57;100.00
8641;BME280;4358;42.100;25.222;2022-11-11T10:02:13;101305.72;;;14.64;100.00
8641;BME280;4358;42.100;25.222;2022-11-11T10:04:50;101313.34;;;14.70;100.00
8641;BME280;4358;42.100;25.222;2022-11-11T10:07:26;101308.28;;;14.65;100.00
8641;BME280;4358;42.100;25.222;2022-11-11T10:09:57;101304.34;;;14.71;100.00
8641;BME280;4358;42.100;25.222;2022-11-11T10:12:34;101306.84;;;14.88;100.00
8641;BME280;4358;42.100;25.222;2022-11-11T10:15:04;101304.66;;;14.95;100.00
8641;BME280;4358;42.100;25.222;2022-11-11T10:17:36;101301.69;;;14.99;100.00
8641;BME280;4358;42.100;25.222;2022-11-11T10:20:14;101295.97;;;15.05;100.00
8641;BME280;4358;42.100;25.222;2022-11-11T10:22:45;101296.63;;;14.95;100.00
8641;BME280;4358;42.100;25.222;2022-11-11T10:25:22;101297.47;;;15.09;100.00
8641;BME280;4358;42.100;25.222;2022-11-11T10:27:52;101294.31;;;15.03;100.00
8641;BME280;4358;42.100;25.222;2022-11-11T10:30:23;101298.81;;;15.02;100.00
8641;BME280;4358;42.100;25.222;2022-11-11T10:32:53;101296.59;;;15.09;100.00
8641;BME280;4358;42.100;25.222;2022-11-11T10:35:25;101295.56;;;15.11;100.00
8641;BME280;4358;42.100;25.222;2022-11-11T10:38:00;101300.31;;;15.20;100.00
8641;BME280;4358;42.100;25.222;2022-11-11T10:40:34;101295.53;;;15.25;100.00
8641;BME280;4358;42.100;25.222;2022-11-11T10:43:03;101305.06;;;15.30;100.00
8641;BME280;4358;42.100;25.222;2022-11-11T10:45:38;101295.06;;;15.33;100.00
8641;BME280;4358;42.100;25.222;2022-11-11T10:48:12;101292.66;;;15.28;100.00
8641;BME280;4358;42.100;25.222;2022-11-11T10:50:45;101296.19;;;15.43;100.00
8641;BME280;4358;42.100;25.222;2022-11-11T10:53:19;101292.97;;;15.51;100.00
8641;BME280;4358;42.100;25.222;2022-11-11T10:55:53;101297.78;;;15.46;100.00
8641;BME280;4358;42.100;25.222;2022-11-11T10:58:27;101285.88;;;15.37;100.00
8641;BME280;4358;42.100;25.222;2022-11-11T11:00:56;101287.69;;;15.37;100.00
8641;BME280;4358;42.100;25.222;2022-11-11T11:03:30;101292.88;;;15.25;100.00
8641;BME280;4358;42.100;25.222;2022-11-11T11:06:05;101290.56;;;15.19;100.00
8641;BME280;4358;42.100;25.222;2022-11-11T11:08:37;101291.75;;;15.15;100.00
8641;BME280;4358;42.100;25.222;2022-11-11T11:11:10;101285.44;;;15.16;100.00
8641;BME280;4358;42.100;25.222;2022-11-11T11:13:44;101284.66;;;15.14;100.00
8641;BME280;4358;42.100;25.222;2022-11-11T11:16:16;101276.16;;;15.08;100.00
8641;BME280;4358;42.100;25.222;2022-11-11T11:19:13;101277.63;;;14.99;100.00
8641;BME280;4358;42.100;25.222;2022-11-11T11:21:52;101272.47;;;14.96;100.00
8641;BME280;4358;42.100;25.222;2022-11-11T11:24:22;101276.19;;;14.94;100.00
8641;BME280;4358;42.100;25.222;2022-11-11T11:26:52;101270.19;;;14.76;100.00
8641;BME280;4358;42.100;25.222;2022-11-11T11:29:24;101256.84;;;14.62;100.00
8641;BME280;4358;42.100;25.222;2022-11-11T11:31:52;101259.13;;;14.54;100.00
8641;BME280;4358;42.100;25.222;2022-11-11T11:34:19;101264.84;;;14.62;100.00
8641;BME280;4358;42.100;25.222;2022-11-11T11:37:00;101265.22;;;14.56;100.00
8641;BME280;4358;42.100;25.222;2022-11-11T11:39:34;101261.97;;;14.51;100.00
8641;BME280;4358;42.100;25.222;2022-11-11T11:42:01;101261.31;;;14.47;100.00
8641;BME280;4358;42.100;25.222;2022-11-11T11:44:32;101245.97;;;14.36;100.00
8641;BME280;4358;42.100;25.222;2022-11-11T11:47:08;101258.00;;;14.44;100.00
8641;BME280;4358;42.100;25.222;2022-11-11T11:50:01;101266.38;;;14.37;100.00
8641;BME280;4358;42.100;25.222;2022-11-11T11:52:40;101258.78;;;14.30;100.00
8641;BME280;4358;42.100;25.222;2022-11-11T11:55:14;101256.22;;;14.28;100.00
8641;BME280;4358;42.100;25.222;2022-11-11T11:57:52;101267.44;;;14.19;100.00
8641;BME280;4358;42.100;25.222;2022-11-11T12:00:23;101269.38;;;14.17;100.00
8641;BME280;4358;42.100;25.222;2022-11-11T12:05:48;101269.16;;;14.06;100.00
8641;BME280;4358;42.100;25.222;2022-11-11T12:08:35;101272.75;;;14.05;100.00
8641;BME280;4358;42.100;25.222;2022-11-11T12:11:12;101264.16;;;14.00;100.00
8641;BME280;4358;42.100;25.222;2022-11-11T12:13:49;101277.31;;;14.03;100.00
8641;BME280;4358;42.100;25.222;2022-11-11T12:16:25;101277.16;;;14.06;100.00
8641;BME280;4358;42.100;25.222;2022-11-11T12:19:11;101272.97;;;14.02;100.00
8641;BME280;4358;42.100;25.222;2022-11-11T12:21:57;101270.09;;;14.05;100.00
8641;BME280;4358;42.100;25.222;2022-11-11T12:24:40;101263.78;;;13.92;100.00
8641;BME280;4358;42.100;25.222;2022-11-11T12:27:18;101259.38;;;13.91;100.00
8641;BME280;4358;42.100;25.222;2022-11-11T12:30:00;101268.94;;;13.95;100.00
8641;BME280;4358;42.100;25.222;2022-11-11T12:32:48;101262.28;;;14.02;100.00
8641;BME280;4358;42.100;25.222;2022-11-11T12:35:33;101272.31;;;13.83;100.00
8641;BME280;4358;42.100;25.222;2022-11-11T12:38:18;101269.84;;;13.80;100.00
8641;BME280;4358;42.100;25.222;2022-11-11T12:40:58;101272.91;;;13.88;100.00
8641;BME280;4358;42.100;25.222;2022-11-11T12:43:35;101278.06;;;13.91;100.00
8641;BME280;4358;42.100;25.222;2022-11-11T12:46:12;101270.09;;;13.75;100.00
8641;BME280;4358;42.100;25.222;2022-11-11T12:48:53;101271.91;;;13.75;100.00
8641;BME280;4358;42.100;25.222;2022-11-11T12:51:36;101267.44;;;13.75;100.00
8641;BME280;4358;42.100;25.222;2022-11-11T12:54:16;101270.72;;;13.65;100.00
8641;BME280;4358;42.100;25.222;2022-11-11T12:56:51;101274.16;;;13.67;100.00
8641;BME280;4358;42.100;25.222;2022-11-11T12:59:26;101266.84;;;13.70;100.00
8641;BME280;4358;42.100;25.222;2022-11-11T13:02:12;101271.13;;;13.73;100.00
8641;BME280;4358;42.100;25.222;2022-11-11T13:04:50;101277.06;;;13.78;100.00
8641;BME280;4358;42.100;25.222;2022-11-11T13:07:48;101276.31;;;13.76;100.00
8641;BME280;4358;42.100;25.222;2022-11-11T13:10:25;101279.84;;;13.76;100.00
8641;BME280;4358;42.100;25.222;2022-11-11T13:12:59;101275.75;;;13.85;100.00
8641;BME280;4358;42.100;25.222;2022-11-11T13:15:29;101277.00;;;13.93;100.00
8641;BME280;4358;42.100;25.222;2022-11-11T13:17:58;101280.31;;;13.83;100.00
8641;BME280;4358;42.100;25.222;2022-11-11T13:20:38;101286.59;;;13.82;100.00